Planet Ace — 3EYF9 — position and weather

sailwx.info

Track history (hours):
 
Tides and Currents Weather Stations Pressure Air Temp Water Temp Dewpoint Dewpoint Depression Visibility Wind Speed Wind Dir Waves Ship Positions

Planet Ace

Last reported at 2016-Jul-28 08:31 UTC. Time now 2016-Jul-28 08:38 UTC.
Position N 43°35' E 010°18'.

Length 188 m; beam 28.2 m.

Type: Cargo ship. MMSI: 352168000.

Date/timePositionNaut miles runAvg speedWind from/ knotsBaromVisibWave heightAir tempDewpointWater temp
2016-Jul-28 08:31N 43°35' E 010°18'0 0.0
2016-Jul-28 07:33N 43°35' E 010°18'5 4.9
2016-Jul-28 06:33N 43°31' E 010°15'9 8.9
2016-Jul-28 05:33N 43°24' E 010°07'1 0.5
2016-Jul-28 04:33N 43°24' E 010°07'0 0.4
2016-Jul-28 03:33N 43°24' E 010°07'0 0.4
2016-Jul-28 02:33N 43°25' E 010°07'0 0.2
2016-Jul-28 01:33N 43°25' E 010°07'0 0.2
2016-Jul-28 00:33N 43°25' E 010°07'0 0.4
2016-Jul-27 23:33N 43°26' E 010°07'1 0.7
2016-Jul-27 22:33N 43°26' E 010°07'1 0.5
2016-Jul-27 21:33N 43°27' E 010°06'0 0.2
2016-Jul-27 20:33N 43°27' E 010°06'0 0.1
2016-Jul-27 19:33N 43°27' E 010°06'6 6.2
2016-Jul-27 18:34N 43°22' E 010°01'1616.1
2016-Jul-27 17:34N 43°15' E 009°41'1716.9
2016-Jul-27 16:34N 43°09' E 009°20'1717.0
2016-Jul-27 15:33N 43°03' E 008°58'1717.1
2016-Jul-27 14:34N 42°57' E 008°36'2017.2
2016-Jul-27 13:23N 42°51' E 008°10'1417.1
2016-Jul-27 12:33N 42°46' E 007°51'1716.9
2016-Jul-27 11:33N 42°40' E 007°30'1816.9
2016-Jul-27 10:29N 42°34' E 007°07'1516.7
2016-Jul-27 09:33N 42°29' E 006°47'1716.6
2016-Jul-27 08:34N 42°24' E 006°26'1616.3
2016-Jul-27 07:33N 42°18' E 006°05'1616.3
2016-Jul-27 06:33N 42°13' E 005°44'1716.3
2016-Jul-27 05:33N 42°07' E 005°23'5316.6
2016-Jul-27 02:20N 41°49' E 004°16'1317.0
2016-Jul-27 01:33N 41°45' E 003°59'1717.0
2016-Jul-27 00:33N 41°39' E 003°37'1616.3
2016-Jul-26 23:33N 41°34' E 003°17'1717.0
2016-Jul-26 22:33N 41°28' E 002°56'1717.0
2016-Jul-26 21:33N 41°21' E 002°35'1716.6
2016-Jul-26 20:33N 41°15' E 002°14'6 6.4
2016-Jul-26 19:33N 41°20' E 002°09'0 0.1
2016-Jul-26 18:18N 41°20' E 002°09'0 0.0
2016-Jul-26 17:30N 41°20' E 002°09'0 0.0
2016-Jul-26 15:30N 41°20' E 002°09'0 0.0
2016-Jul-26 14:27N 41°20' E 002°09'0 0.0
2016-Jul-26 13:33N 41°20' E 002°09'0 0.0
2016-Jul-26 11:30N 41°20' E 002°09'0 0.0
2016-Jul-26 10:30N 41°20' E 002°09'0 0.0
2016-Jul-26 09:27N 41°20' E 002°09'0 0.0
2016-Jul-26 08:30N 41°20' E 002°09'0 0.0
2016-Jul-26 07:30N 41°20' E 002°09'0 0.0
2016-Jul-26 05:23N 41°20' E 002°09'0 0.0
2016-Jul-26 04:17N 41°20' E 002°09'0 0.0
2016-Jul-26 03:11N 41°20' E 002°09'0 0.0
2016-Jul-26 02:23N 41°20' E 002°09'0 0.0
2016-Jul-26 00:29N 41°20' E 002°09'0 0.0
2016-Jul-25 23:26N 41°20' E 002°09'1 1.2
2016-Jul-25 22:33N 41°20' E 002°10'6 4.9
2016-Jul-25 21:22N 41°15' E 002°12'4 5.1
2016-Jul-25 20:33N 41°11' E 002°14'1211.6
2016-Jul-25 19:33N 41°00' E 002°20'7 6.6
2016-Jul-25 18:33N 40°54' E 002°23'1 0.6
2016-Jul-25 17:33N 40°54' E 002°23'1 0.9
2016-Jul-25 16:34N 40°54' E 002°21'1 1.1
2016-Jul-25 15:33N 40°54' E 002°20'1 1.4
2016-Jul-25 14:33N 40°55' E 002°18'1 1.2
2016-Jul-25 13:33N 40°55' E 002°17'2 1.6
2016-Jul-25 12:33N 40°54' E 002°15'1312.5
2016-Jul-25 11:33N 40°47' E 002°01'1514.6
2016-Jul-25 10:33N 40°38' E 001°46'1514.7
2016-Jul-25 09:33N 40°25' E 001°36'1514.5
2016-Jul-25 08:33N 40°12' E 001°28'1414.5
2016-Jul-25 07:33N 39°60' E 001°19'1514.5
2016-Jul-25 06:33N 39°46' E 001°11'1715.3
2016-Jul-25 05:27N 39°32' E 001°01'1314.7
2016-Jul-25 04:33N 39°20' E 000°53'1814.7
2016-Jul-25 03:20N 39°04' E 000°42'1314.6
2016-Jul-25 02:27N 38°53' E 000°34'5814.9
2016-Jul-24 22:33N 38°03' W 000°05'2014.9
2016-Jul-24 21:11N 37°46' W 000°18'914.6
2016-Jul-24 20:33N 37°39' W 000°26'1515.4
2016-Jul-24 19:33N 37°27' W 000°38'1614.9
2016-Jul-24 18:30N 37°17' W 000°54'1414.5
2016-Jul-24 17:33N 37°08' W 001°07'1514.2
2016-Jul-24 16:30N 36°58' W 001°21'4614.3
2016-Jul-24 13:15N 36°27' W 002°04'1114.8
2016-Jul-24 12:29N 36°21' W 002°15'1414.7
2016-Jul-24 11:32N 36°17' W 002°32'12014.9
2016-Jul-24 03:28N 36°01' W 004°60'1516.3
2016-Jul-24 02:33N 35°59' W 005°18'20 1.8
2016-Jul-23 15:33N 35°54' W 005°42'64 5.6
2016-Jul-23 04:10N 35°50' W 007°00'1 0.7
2016-Jul-23 03:26N 35°51' W 007°01'1 0.7
2016-Jul-23 02:33N 35°51' W 007°01'1 0.9
2016-Jul-23 01:27N 35°51' W 007°02'1 1.1
2016-Jul-23 00:33N 35°52' W 007°03'1 1.3
2016-Jul-22 23:33N 35°53' W 007°04'1 1.4
2016-Jul-22 22:33N 35°54' W 007°06'2 1.4
2016-Jul-22 21:25N 35°55' W 007°07'1 1.4
2016-Jul-22 20:31N 35°55' W 007°09'1 1.4
2016-Jul-22 19:31N 35°56' W 007°10'1 1.4
2016-Jul-22 18:33N 35°57' W 007°11'1 1.4
2016-Jul-22 17:33N 35°58' W 007°12'1 1.3
2016-Jul-22 16:32N 35°60' W 007°13'3 1.2
2016-Jul-22 14:19N 36°02' W 007°14'15912.4
2016-Jul-22 01:30N 37°42' W 009°49'1514.2
2016-Jul-22 00:29N 37°56' W 009°54'1414.7
2016-Jul-21 23:33N 38°09' W 009°57'1615.6
2016-Jul-21 22:32N 38°25' W 010°01'1615.5
2016-Jul-21 21:29N 38°41' W 010°06'1515.3
2016-Jul-21 20:31N 38°55' W 010°05'3415.4
2016-Jul-21 18:17N 39°30' W 010°06'54714.5
2016-Jul-20 04:33N 48°13' W 006°23'1414.1
2016-Jul-20 03:33N 48°26' W 006°15'1413.8
2016-Jul-20 02:33N 48°38' W 006°06'2713.5
2016-Jul-20 00:33N 48°59' W 005°40'1515.0
2016-Jul-19 23:33N 49°08' W 005°21'1916.0
2016-Jul-19 22:21N 49°19' W 004°58'1316.1
2016-Jul-19 21:33N 49°28' W 004°44'1615.6
2016-Jul-19 20:34N 49°39' W 004°26'1514.8
2016-Jul-19 19:33N 49°49' W 004°10'1414.3
2016-Jul-19 18:33N 49°59' W 003°54'1413.7
2016-Jul-19 17:33N 50°09' W 003°38'1413.8
2016-Jul-19 16:33N 50°20' W 003°26'8 7.9
2016-Jul-19 15:33N 50°26' W 003°17'1615.7
2016-Jul-19 14:33N 50°26' W 002°52'1717.2
2016-Jul-19 13:33N 50°25' W 002°26'2017.9
2016-Jul-19 12:27N 50°26' W 001°55'1517.0
2016-Jul-19 11:33N 50°25' W 001°31'1615.9
2016-Jul-19 10:33N 50°26' W 001°06'1414.1
2016-Jul-19 09:33N 50°27' W 000°44'1312.7
2016-Jul-19 08:33N 50°31' W 000°24'1313.0
2016-Jul-19 07:33N 50°32' W 000°04'4314.5
2016-Jul-19 04:33N 50°49' E 000°59'1616.0
2016-Jul-19 03:33N 50°60' E 001°19'1514.8
2016-Jul-19 02:33N 51°09' E 001°36'1313.0
2016-Jul-19 01:33N 51°22' E 001°43'1312.8
2016-Jul-19 00:33N 51°34' E 001°46'1414.0
2016-Jul-18 23:33N 51°48' E 001°43'1414.3
2016-Jul-18 22:33N 52°02' E 001°48'1515.3
2016-Jul-18 21:33N 52°17' E 001°55'1616.1
2016-Jul-18 20:33N 52°32' E 002°03'1515.3
2016-Jul-18 19:33N 52°47' E 001°56'1716.7
2016-Jul-18 18:33N 52°57' E 001°34'1616.1
2016-Jul-18 17:33N 53°11' E 001°20'1615.8
2016-Jul-18 16:33N 53°24' E 001°06'2215.8
2016-Jul-18 15:08N 53°43' E 000°45'1315.9
2016-Jul-18 14:18N 53°53' E 000°30'1115.4
2016-Jul-18 13:33N 54°02' E 000°17'1515.3
2016-Jul-18 12:33N 54°13' E 000°00'1514.7
2016-Jul-18 11:33N 54°25' W 000°16'1814.2
2016-Jul-18 10:19N 54°38' W 000°36'1114.4
2016-Jul-18 09:33N 54°45' W 000°50'1514.7
2016-Jul-18 08:33N 54°55' W 001°08'  
Track history (hours):
 
Tides and Currents Weather Stations Pressure Air Temp Water Temp Dewpoint Dewpoint Depression Visibility Wind Speed Wind Dir Waves Ship Positions

Planet Ace

Last reported at 2016-Jul-28 08:31 UTC. Time now 2016-Jul-28 08:38 UTC.
Position N 43°35' E 010°18'.

Length 188 m; beam 28.2 m.

Type: Cargo ship. MMSI: 352168000.

Date/timePositionNaut miles runAvg speedWind from/ knotsBaromVisibWave heightAir tempDewpointWater temp
2016-Jul-28 08:31N 43°35' E 010°18'0 0.0
2016-Jul-28 07:33N 43°35' E 010°18'5 4.9
2016-Jul-28 06:33N 43°31' E 010°15'9 8.9
2016-Jul-28 05:33N 43°24' E 010°07'1 0.5
2016-Jul-28 04:33N 43°24' E 010°07'0 0.4
2016-Jul-28 03:33N 43°24' E 010°07'0 0.4
2016-Jul-28 02:33N 43°25' E 010°07'0 0.2
2016-Jul-28 01:33N 43°25' E 010°07'0 0.2
2016-Jul-28 00:33N 43°25' E 010°07'0 0.4
2016-Jul-27 23:33N 43°26' E 010°07'1 0.7
2016-Jul-27 22:33N 43°26' E 010°07'1 0.5
2016-Jul-27 21:33N 43°27' E 010°06'0 0.2
2016-Jul-27 20:33N 43°27' E 010°06'0 0.1
2016-Jul-27 19:33N 43°27' E 010°06'6 6.2
2016-Jul-27 18:34N 43°22' E 010°01'1616.1
2016-Jul-27 17:34N 43°15' E 009°41'1716.9
2016-Jul-27 16:34N 43°09' E 009°20'1717.0
2016-Jul-27 15:33N 43°03' E 008°58'1717.1
2016-Jul-27 14:34N 42°57' E 008°36'2017.2
2016-Jul-27 13:23N 42°51' E 008°10'1417.1
2016-Jul-27 12:33N 42°46' E 007°51'1716.9
2016-Jul-27 11:33N 42°40' E 007°30'1816.9
2016-Jul-27 10:29N 42°34' E 007°07'1516.7
2016-Jul-27 09:33N 42°29' E 006°47'1716.6
2016-Jul-27 08:34N 42°24' E 006°26'1616.3
2016-Jul-27 07:33N 42°18' E 006°05'1616.3
2016-Jul-27 06:33N 42°13' E 005°44'1716.3
2016-Jul-27 05:33N 42°07' E 005°23'5316.6
2016-Jul-27 02:20N 41°49' E 004°16'1317.0
2016-Jul-27 01:33N 41°45' E 003°59'1717.0
2016-Jul-27 00:33N 41°39' E 003°37'1616.3
2016-Jul-26 23:33N 41°34' E 003°17'1717.0
2016-Jul-26 22:33N 41°28' E 002°56'1717.0
2016-Jul-26 21:33N 41°21' E 002°35'1716.6
2016-Jul-26 20:33N 41°15' E 002°14'6 6.4
2016-Jul-26 19:33N 41°20' E 002°09'0 0.1
2016-Jul-26 18:18N 41°20' E 002°09'0 0.0
2016-Jul-26 17:30N 41°20' E 002°09'0 0.0
2016-Jul-26 15:30N 41°20' E 002°09'0 0.0
2016-Jul-26 14:27N 41°20' E 002°09'0 0.0
2016-Jul-26 13:33N 41°20' E 002°09'0 0.0
2016-Jul-26 11:30N 41°20' E 002°09'0 0.0
2016-Jul-26 10:30N 41°20' E 002°09'0 0.0
2016-Jul-26 09:27N 41°20' E 002°09'0 0.0
2016-Jul-26 08:30N 41°20' E 002°09'0 0.0
2016-Jul-26 07:30N 41°20' E 002°09'0 0.0
2016-Jul-26 05:23N 41°20' E 002°09'0 0.0
2016-Jul-26 04:17N 41°20' E 002°09'0 0.0
2016-Jul-26 03:11N 41°20' E 002°09'0 0.0
2016-Jul-26 02:23N 41°20' E 002°09'0 0.0
2016-Jul-26 00:29N 41°20' E 002°09'0 0.0
2016-Jul-25 23:26N 41°20' E 002°09'1 1.2
2016-Jul-25 22:33N 41°20' E 002°10'6 4.9
2016-Jul-25 21:22N 41°15' E 002°12'4 5.1
2016-Jul-25 20:33N 41°11' E 002°14'1211.6
2016-Jul-25 19:33N 41°00' E 002°20'7 6.6
2016-Jul-25 18:33N 40°54' E 002°23'1 0.6
2016-Jul-25 17:33N 40°54' E 002°23'1 0.9
2016-Jul-25 16:34N 40°54' E 002°21'1 1.1
2016-Jul-25 15:33N 40°54' E 002°20'1 1.4
2016-Jul-25 14:33N 40°55' E 002°18'1 1.2
2016-Jul-25 13:33N 40°55' E 002°17'2 1.6
2016-Jul-25 12:33N 40°54' E 002°15'1312.5
2016-Jul-25 11:33N 40°47' E 002°01'1514.6
2016-Jul-25 10:33N 40°38' E 001°46'1514.7
2016-Jul-25 09:33N 40°25' E 001°36'1514.5
2016-Jul-25 08:33N 40°12' E 001°28'1414.5
2016-Jul-25 07:33N 39°60' E 001°19'1514.5
2016-Jul-25 06:33N 39°46' E 001°11'1715.3
2016-Jul-25 05:27N 39°32' E 001°01'1314.7
2016-Jul-25 04:33N 39°20' E 000°53'1814.7
2016-Jul-25 03:20N 39°04' E 000°42'1314.6
2016-Jul-25 02:27N 38°53' E 000°34'5814.9
2016-Jul-24 22:33N 38°03' W 000°05'2014.9
2016-Jul-24 21:11N 37°46' W 000°18'914.6
2016-Jul-24 20:33N 37°39' W 000°26'1515.4
2016-Jul-24 19:33N 37°27' W 000°38'1614.9
2016-Jul-24 18:30N 37°17' W 000°54'1414.5
2016-Jul-24 17:33N 37°08' W 001°07'1514.2
2016-Jul-24 16:30N 36°58' W 001°21'4614.3
2016-Jul-24 13:15N 36°27' W 002°04'1114.8
2016-Jul-24 12:29N 36°21' W 002°15'1414.7
2016-Jul-24 11:32N 36°17' W 002°32'12014.9
2016-Jul-24 03:28N 36°01' W 004°60'1516.3
2016-Jul-24 02:33N 35°59' W 005°18'20 1.8
2016-Jul-23 15:33N 35°54' W 005°42'64 5.6
2016-Jul-23 04:10N 35°50' W 007°00'1 0.7
2016-Jul-23 03:26N 35°51' W 007°01'1 0.7
2016-Jul-23 02:33N 35°51' W 007°01'1 0.9
2016-Jul-23 01:27N 35°51' W 007°02'1 1.1
2016-Jul-23 00:33N 35°52' W 007°03'1 1.3
2016-Jul-22 23:33N 35°53' W 007°04'1 1.4
2016-Jul-22 22:33N 35°54' W 007°06'2 1.4
2016-Jul-22 21:25N 35°55' W 007°07'1 1.4
2016-Jul-22 20:31N 35°55' W 007°09'1 1.4
2016-Jul-22 19:31N 35°56' W 007°10'1 1.4
2016-Jul-22 18:33N 35°57' W 007°11'1 1.4
2016-Jul-22 17:33N 35°58' W 007°12'1 1.3
2016-Jul-22 16:32N 35°60' W 007°13'3 1.2
2016-Jul-22 14:19N 36°02' W 007°14'15912.4
2016-Jul-22 01:30N 37°42' W 009°49'1514.2
2016-Jul-22 00:29N 37°56' W 009°54'1414.7
2016-Jul-21 23:33N 38°09' W 009°57'1615.6
2016-Jul-21 22:32N 38°25' W 010°01'1615.5
2016-Jul-21 21:29N 38°41' W 010°06'1515.3
2016-Jul-21 20:31N 38°55' W 010°05'3415.4
2016-Jul-21 18:17N 39°30' W 010°06'54714.5
2016-Jul-20 04:33N 48°13' W 006°23'1414.1
2016-Jul-20 03:33N 48°26' W 006°15'1413.8
2016-Jul-20 02:33N 48°38' W 006°06'2713.5
2016-Jul-20 00:33N 48°59' W 005°40'1515.0
2016-Jul-19 23:33N 49°08' W 005°21'1916.0
2016-Jul-19 22:21N 49°19' W 004°58'1316.1
2016-Jul-19 21:33N 49°28' W 004°44'1615.6
2016-Jul-19 20:34N 49°39' W 004°26'1514.8
2016-Jul-19 19:33N 49°49' W 004°10'1414.3
2016-Jul-19 18:33N 49°59' W 003°54'1413.7
2016-Jul-19 17:33N 50°09' W 003°38'1413.8
2016-Jul-19 16:33N 50°20' W 003°26'8 7.9
2016-Jul-19 15:33N 50°26' W 003°17'1615.7
2016-Jul-19 14:33N 50°26' W 002°52'1717.2
2016-Jul-19 13:33N 50°25' W 002°26'2017.9
2016-Jul-19 12:27N 50°26' W 001°55'1517.0
2016-Jul-19 11:33N 50°25' W 001°31'1615.9
2016-Jul-19 10:33N 50°26' W 001°06'1414.1
2016-Jul-19 09:33N 50°27' W 000°44'1312.7
2016-Jul-19 08:33N 50°31' W 000°24'1313.0
2016-Jul-19 07:33N 50°32' W 000°04'4314.5
2016-Jul-19 04:33N 50°49' E 000°59'1616.0
2016-Jul-19 03:33N 50°60' E 001°19'1514.8
2016-Jul-19 02:33N 51°09' E 001°36'1313.0
2016-Jul-19 01:33N 51°22' E 001°43'1312.8
2016-Jul-19 00:33N 51°34' E 001°46'1414.0
2016-Jul-18 23:33N 51°48' E 001°43'1414.3
2016-Jul-18 22:33N 52°02' E 001°48'1515.3
2016-Jul-18 21:33N 52°17' E 001°55'1616.1
2016-Jul-18 20:33N 52°32' E 002°03'1515.3
2016-Jul-18 19:33N 52°47' E 001°56'1716.7
2016-Jul-18 18:33N 52°57' E 001°34'1616.1
2016-Jul-18 17:33N 53°11' E 001°20'1615.8
2016-Jul-18 16:33N 53°24' E 001°06'2215.8
2016-Jul-18 15:08N 53°43' E 000°45'1315.9
2016-Jul-18 14:18N 53°53' E 000°30'1115.4
2016-Jul-18 13:33N 54°02' E 000°17'1515.3
2016-Jul-18 12:33N 54°13' E 000°00'1514.7
2016-Jul-18 11:33N 54°25' W 000°16'1814.2
2016-Jul-18 10:19N 54°38' W 000°36'1114.4
2016-Jul-18 09:33N 54°45' W 000°50'1514.7
2016-Jul-18 08:33N 54°55' W 001°08'  

Dump ship's entire track history